TFM - Tactical Decision Aid (Experimental) INFO Settings
ID: Runway Winds: CIG/VIS Threshold: METAR Board: Map:

KCLT - Charlotte-Douglas Intl

Updated at: 1351 UTC 27 Feb 2017
Latest TAF at: 1128 UTC 27 Feb 2017

TAF Board

Time1252Z27/14Z27/15Z27/16Z27/17Z27/18Z27/19Z27/20Z27/21Z27/22Z27/23Z28/00Z28/01Z28/02Z
TypeOBSPRVLPRVLPRVLPRVLPRVLPRVLPRVLPRVLPRVLPRVLPRVLPRVLPRVL
VIS10>6>6>6>6>6>6>6>6>6>6>6>6>6
CIG160150140140140140140140140140140140140140
CoverBKNBKNBKNBKNBKNBKNBKNBKNBKNBKNBKNBKNBKNBKN
FltCatVFRVFRVFRVFRVFRVFRVFRVFRVFRVFRVFRVFRVFRVFR
WX----------------------------
WDir60340160160160160160160160160160160160160
WSpd43666666666666
WGst----------------------------
TAF
KCLT 271128Z 2712/2812 34003KT P6SM BKN150
  FM271500 16006KT P6SM BKN140
  FM280600 12003KT P6SM BKN040
  FM280900 VRB02KT P6SM OVC015


METAR
KCLT 271252Z 06004KT 10SM BKN160 07/M02 A3037 RMK AO2 SLP286 T00671022

TAF/METAR Board Legend

Potential Impact
  None Marginal Slight Moderate High
Visibility (sm) >5 3≤X≤5 1≤X<3 0.5≤X<1 <0.5
Ceiling (100 ft) >30 10≤X≤30 4≤X<10 2≤X<4 <2
Wind Speed (kt) <10 10≤X<20 20≤X<30 ≥30
Wind Gust (kt) <15 15≤X<25 25≤X<35 ≥35
Weather No Wx Reported VCTS -TS,-FZRA TS,FZRA +TS,+FZRA



Page loaded:  13:51 UTC  |   05:51 AM Pacific  |   06:51 AM Mountain  |   07:51 AM Central  |   08:51 AM Eastern

 

ADVISORIES

FORECASTS

FORECASTS

OBSERVATIONS

USER TOOLS

ABOUT US